Denison, Iowa
Current Conditions -  °F | °C
As of 4:55 PM on Wednesday 26 Nov 2014 (Local Time) from KDNS Reporting Station
Overcast Overcast  
Wind Chill: 10°   Ceiling: 1300
Heat Index: 23°   Visibility: 9mi
Dew Point: 19°   Wind: 16mph
Humidity: 86%   Direction: 350°N
Pressure: 30.24"   Gusts: 23mph
Location:  42.01°N, 95.35°W
Report Text: KDNS 262255Z AUTO 35014G20KT 9SM OVC013 M05/M07 A3024 RMK AO2
Loading
Personal Weather Stations






























Interactive Weather Map New forecast layout! Learn more

10-Day Weather Forecast

Advertisements
Track Severe Weather on mobile